Terminal Aerodrome Forecast
Issued by NWS Spokane, WA

Current Version | Previous Version | Text Only | Print | Product List | Glossary On
Versions: 1 2 3 4 5 6 7 8 9 10 11 12 13 14 15
000
FTUS46 KOTX 260520
TAFLWS
TAF
KLWS 260520Z 2606/2706 22020G30KT P6SM SCT100 BKN150
     FM261400 22016KT P6SM SCT100 SCT150
     FM261900 26020G30KT P6SM FEW080 SCT150
     FM270100 24012KT P6SM SCT040 BKN080=

USA.gov is the U.S. government's official web portal to all federal, state and local government web resources and services.